Latest Weather Observations for Cape Leeuwin

IDW60801

Issued at 1:05 pm WST Friday 25 April 2014 (issued every 30 minutes, with the page automatically refreshed every 10 minutes)

About weather observations | Map of weather stations | Latest weather observations for WA | Other Formats
Station Details ID: 009518 Name: CAPE LEEUWIN Lat: -34.37 Lon: 115.14 Height: 13.0 m
Data from the previous 72 hours. | See also: Recent months at Cape Leeuwin
Date/Time
WST
Temp
°C
App
Temp
°C
Dew
Point
Rel
Hum
%
Delta-T
°C
Wind Press
QNH
hPa
Press
MSL
hPa
Rain
since 9 am
mm
Dir
 
Spd
km/h
Gust
km/h
Spd
kts
Gust
kts
25/01:00pm 19.6 14.9 12.0 61 4.2 SE 28 33 15 18 1014.5 - 0.0
25/12:30pm 20.1 15.7 12.8 63 4.1 SE 28 35 15 19 1014.7 - 0.0
25/12:00pm 21.5 17.1 12.9 58 4.9 SSE 28 33 15 18 1014.8 1014.7 0.0
25/11:30am 20.9 16.1 11.7 55 5.1 SSE 28 33 15 18 1014.8 - 0.0
25/11:00am 20.3 15.1 12.7 61 4.3 SSE 32 39 17 21 1014.8 - 0.0
25/10:30am 20.2 15.3 12.6 61 4.3 SSE 30 35 16 19 1014.8 - 0.0
25/10:00am 20.0 15.7 13.3 65 3.8 SSE 28 35 15 19 1014.6 - 0.0
25/09:30am 20.3 15.6 13.3 64 4.0 SE 30 37 16 20 1014.3 - 0.0
25/09:00am 19.9 14.8 13.0 64 3.9 SSE 32 39 17 21 1014.2 1014.1 0.0
25/08:30am 18.6 13.5 13.1 70 3.1 SSE 32 39 17 21 1013.9 - 0.0
25/08:00am 18.5 14.3 12.4 67 3.4 SSE 26 33 14 18 1013.5 - 0.0
25/07:30am 18.5 14.1 12.8 69 3.2 SSE 28 37 15 20 1013.0 - 0.0
25/07:00am 18.3 14.4 13.2 72 2.9 SSE 26 33 14 18 1012.6 - 0.0
25/06:30am 18.3 14.5 12.4 68 3.3 S 24 32 13 17 1012.4 - 0.0
25/06:00am 18.5 14.4 12.6 68 3.3 S 26 33 14 18 1012.1 1012.0 0.0
25/05:30am 18.4 13.4 12.3 67 3.4 SSE 30 35 16 19 1011.8 - 0.0
25/05:00am 18.4 13.9 12.7 69 3.2 SSE 28 33 15 18 1011.5 - 0.0
25/04:30am 18.3 14.3 13.0 71 3.0 SSE 26 33 14 18 1011.2 - 0.0
25/04:00am 18.2 14.6 13.0 71 2.9 S 24 32 13 17 1011.2 - 0.0
25/03:30am 18.4 14.2 12.5 68 3.3 S 26 33 14 18 1011.2 - 0.0
25/03:00am 18.4 14.8 12.9 70 3.1 S 24 32 13 17 1011.3 1011.2 0.0
25/02:30am 18.4 15.0 13.7 74 2.7 S 24 32 13 17 1011.4 - 0.0
25/02:00am 18.4 14.8 12.9 70 3.1 S 24 32 13 17 1011.4 - 0.0
25/01:30am 18.6 15.6 13.7 73 2.8 S 22 30 12 16 1011.4 - 0.0
25/01:00am 18.5 15.7 12.6 68 3.3 SSE 19 24 10 13 1011.3 - 0.0
25/12:30am 18.6 15.8 12.5 67 3.4 SSE 19 26 10 14 1010.9 - 0.0
25/12:00am 18.7 16.0 13.0 69 3.2 SSE 19 26 10 14 1011.1 1011.0 0.0
 
Date/Time
WST
Temp
°C
App
Temp
°C
Dew
Point
Rel
Hum
%
Delta-T
°C
Wind Press
QNH
hPa
Press
MSL
hPa
Rain
since 9 am
mm
Dir
 
Spd
km/h
Gust
km/h
Spd
kts
Gust
kts
24/11:30pm 18.8 15.3 12.3 66 3.6 SSE 22 28 12 15 1011.1 - 0.0
24/11:00pm 18.7 15.2 12.2 66 3.6 SSE 22 28 12 15 1011.3 - 0.0
24/10:30pm 18.6 15.0 13.1 70 3.1 SSE 24 30 13 16 1011.5 - 0.0
24/10:00pm 18.6 15.4 13.1 70 3.1 SSE 22 28 12 15 1011.6 - 0.0
24/09:30pm 18.7 15.0 13.8 73 2.8 SE 26 30 14 16 1011.3 - 0.0
24/09:00pm 18.7 14.9 13.6 72 2.9 SE 26 32 14 17 1011.3 1011.2 0.0
24/08:30pm 18.7 14.5 13.4 71 3.0 SE 28 32 15 17 1011.3 - 0.0
24/08:00pm 18.8 14.3 13.7 72 2.9 SE 30 37 16 20 1011.1 - 0.0
24/07:30pm 18.9 14.5 14.2 74 2.7 SSE 30 35 16 19 1011.1 - 0.0
24/07:00pm 19.0 14.7 14.3 74 2.7 SSE 30 37 16 20 1011.0 - 0.0
24/06:30pm 19.2 15.3 14.4 74 2.8 SSE 28 33 15 18 1010.7 - 0.0
24/06:00pm 19.5 15.9 14.3 72 3.0 SSE 26 32 14 17 1010.3 1010.2 0.0
24/05:30pm 19.3 15.5 13.7 70 3.2 SSE 26 32 14 17 1009.8 - 0.0
24/05:00pm 19.4 15.8 13.0 66 3.6 SSE 24 32 13 17 1009.7 - 0.0
24/04:30pm 19.4 16.5 13.0 66 3.6 SSE 20 26 11 14 1009.6 - 0.0
24/04:00pm 19.4 16.8 13.2 67 3.5 SSE 19 24 10 13 1009.5 - 0.0
24/03:30pm 19.5 17.1 13.9 70 3.2 SSE 19 22 10 12 1009.3 - 0.0
24/03:00pm 20.2 17.8 13.8 66 3.7 SSE 19 24 10 13 1009.1 1009.0 0.0
24/02:30pm 20.4 19.0 14.4 68 3.5 SSE 15 19 8 10 1009.1 - 0.0
24/02:00pm 20.7 19.2 14.2 66 3.8 SSE 15 19 8 10 1009.3 - 0.0
24/01:30pm 19.9 19.0 13.8 68 3.5 SSE 11 15 6 8 1009.4 - 0.0
24/01:00pm 19.5 18.6 13.6 68 3.4 ESE 11 15 6 8 1009.7 - 0.0
24/12:30pm 19.3 18.0 13.7 70 3.2 ESE 13 15 7 8 1010.2 - 0.0
24/12:00pm 18.8 17.2 12.9 68 3.3 ESE 13 15 7 8 1010.8 1010.7 0.0
24/11:30am 18.5 16.5 12.8 69 3.2 ESE 15 17 8 9 1011.4 - 0.0
24/11:00am 17.5 14.6 12.3 71 2.9 E 19 22 10 12 1011.6 - 0.0
24/10:30am 16.9 13.4 12.2 74 2.6 E 22 24 12 13 1012.1 - 0.0
24/10:00am 17.3 13.1 11.2 67 3.3 E 24 30 13 16 1012.4 - 0.0
24/09:30am 16.7 12.5 11.1 69 3.0 E 24 28 13 15 1012.9 - 0.0
24/09:00am 16.0 11.9 11.6 75 2.4 E 24 30 13 16 1013.3 1013.2 0.0
24/08:30am 15.4 11.3 11.5 77 2.1 E 24 30 13 16 1013.4 - 0.0
24/08:00am 15.1 10.2 11.4 78 2.0 ENE 28 33 15 18 1013.2 - 0.0
24/07:30am 14.8 9.5 11.4 80 1.8 ENE 30 33 16 18 1013.4 - 0.0
24/07:00am 14.8 10.0 11.8 82 1.6 ENE 28 32 15 17 1013.6 - 0.0
24/06:30am 15.5 11.3 12.4 82 1.7 ENE 26 32 14 17 1013.5 - 0.0
24/06:00am 15.4 11.2 12.3 82 1.7 ENE 26 28 14 15 1013.8 1013.7 0.0
24/05:30am 15.6 10.6 12.1 80 1.9 ENE 30 35 16 19 1013.8 - 0.0
24/05:00am 15.5 10.4 12.0 79 1.9 ENE 30 33 16 18 1013.9 - 0.0
24/04:30am 15.6 10.6 12.1 80 1.9 ENE 30 33 16 18 1014.0 - 0.0
24/04:00am 15.7 11.1 12.4 81 1.8 ENE 28 32 15 17 1014.2 - 0.0
24/03:30am 15.5 11.0 12.6 83 1.6 ENE 28 32 15 17 1014.3 - 0.0
24/03:00am 15.5 10.2 12.6 83 1.6 ENE 32 35 17 19 1014.6 1014.5 0.0
24/02:30am 16.0 10.6 12.7 81 1.8 ENE 33 41 18 22 1014.9 - 0.0
24/02:00am 16.3 11.3 13.3 82 1.7 ENE 32 37 17 20 1015.2 - 0.0
24/01:30am 16.7 11.1 13.3 80 1.9 E 35 41 19 22 1015.2 - 0.0
24/01:00am 17.1 12.0 13.7 80 1.9 E 33 39 18 21 1015.3 - 0.0
24/12:30am 17.4 12.6 13.9 80 2.0 E 32 35 17 19 1015.6 - 0.0
24/12:00am 17.5 13.1 14.2 81 1.9 E 30 33 16 18 1015.9 1015.8 0.0
 
Date/Time
WST
Temp
°C
App
Temp
°C
Dew
Point
Rel
Hum
%
Delta-T
°C
Wind Press
QNH
hPa
Press
MSL
hPa
Rain
since 9 am
mm
Dir
 
Spd
km/h
Gust
km/h
Spd
kts
Gust
kts
23/11:30pm 17.5 13.2 14.5 82 1.7 E 30 35 16 19 1016.2 - 0.0
23/11:00pm 18.0 13.6 15.1 83 1.7 E 32 37 17 20 1016.3 - 0.0
23/10:30pm 18.1 14.0 13.9 76 2.4 ESE 28 33 15 18 1016.7 - 0.0
23/10:00pm 18.2 14.5 14.0 76 2.4 ESE 26 33 14 18 1016.8 - 0.0
23/09:30pm 18.2 14.1 13.8 75 2.5 ESE 28 33 15 18 1016.8 - 0.0
23/09:00pm 18.3 14.5 13.7 74 2.6 ESE 26 32 14 17 1016.9 1016.8 0.0
23/08:30pm 18.4 14.9 13.5 73 2.8 ESE 24 32 13 17 1017.0 - 0.0
23/08:00pm 18.3 15.1 13.0 71 3.0 ESE 22 26 12 14 1017.2 - 0.0
23/07:30pm 18.4 15.5 12.9 70 3.1 ESE 20 26 11 14 1017.1 - 0.0
23/07:00pm 18.2 15.3 13.0 71 2.9 SE 20 24 11 13 1017.1 - 0.0
23/06:30pm 18.3 15.5 13.1 71 2.9 SE 20 24 11 13 1016.9 - 0.0
23/06:00pm 18.4 15.5 12.9 70 3.1 SE 20 28 11 15 1016.8 1016.7 0.0
23/05:30pm 18.3 15.2 12.1 67 3.4 SE 20 26 11 14 1016.7 - 0.0
23/05:00pm 18.8 15.7 11.7 63 3.9 SE 19 22 10 12 1016.6 - 0.0
23/04:30pm 19.4 17.1 11.8 61 4.2 SSE 15 20 8 11 1016.7 - 0.0
23/04:00pm 19.7 17.0 11.7 60 4.4 SSE 17 22 9 12 1016.8 - 0.0
23/03:30pm 20.4 18.0 11.5 56 4.9 SSE 15 19 8 10 1016.8 - 0.0
23/03:00pm 20.2 18.3 11.9 59 4.6 SSE 13 20 7 11 1016.8 1016.7 0.0
23/02:30pm 20.9 19.2 11.3 54 5.3 SSE 11 17 6 9 1016.9 - 0.0
23/02:00pm 20.2 18.1 9.9 51 5.5 SE 11 13 6 7 1017.1 - 0.0
23/01:30pm 20.3 19.0 10.1 52 5.5 SSE 7 11 4 6 1017.2 - 0.0
23/01:00pm 20.0 18.1 9.2 49 5.7 ESE 9 13 5 7 1017.6 - 0.0
23/12:30pm 19.9 17.9 10.0 53 5.3 ESE 11 13 6 7 1018.0 - 0.0
23/12:00pm 19.8 17.8 10.3 54 5.1 SSE 11 15 6 8 1018.3 1018.2 0.0
23/11:30am 19.6 16.9 10.3 55 5.0 SSE 15 19 8 10 1018.5 - 0.0
23/11:00am 19.4 16.6 10.0 54 5.0 SSE 15 20 8 11 1018.5 - 0.0
23/10:30am 19.3 17.0 10.6 57 4.7 S 13 20 7 11 1018.3 - 0.0
23/10:00am 19.0 16.3 10.2 56 4.7 S 15 20 8 11 1018.5 - 0.0
23/09:30am 18.8 15.3 10.2 57 4.6 S 19 24 10 13 1018.8 - 0.0
23/09:00am 18.6 15.8 9.9 57 4.6 SSW 15 20 8 11 1018.7 1018.6 0.0
23/08:30am 18.5 14.9 10.5 59 4.3 SW 20 26 11 14 1018.6 - 0.0
23/08:00am 18.3 15.2 10.4 60 4.2 SSW 17 24 9 13 1018.2 - 0.0
23/07:30am 17.4 14.0 11.1 66 3.4 SSW 20 24 11 13 1017.8 - 0.0
23/07:00am 17.4 13.7 11.5 68 3.2 SSW 22 26 12 14 1017.7 - 0.0
23/06:30am 17.5 13.5 10.6 64 3.7 SW 22 26 12 14 1017.6 - 0.0
23/06:00am 17.9 12.9 10.8 63 3.8 SW 28 35 15 19 1017.7 1017.6 0.0
23/05:30am 17.2 12.9 12.1 72 2.8 SW 26 32 14 17 1017.7 - 0.0
23/05:00am 17.3 13.3 11.8 70 3.0 SW 24 30 13 16 1017.6 - 0.0
23/04:30am 17.4 13.8 12.9 75 2.5 SW 24 32 13 17 1017.7 - 0.0
23/04:00am 18.1 14.5 11.7 66 3.5 WSW 22 26 12 14 1017.7 - 0.0
23/03:30am 18.2 14.1 11.4 64 3.7 WSW 24 32 13 17 1017.5 - 0.0
23/03:00am 17.9 13.8 11.3 65 3.6 SW 24 30 13 16 1017.6 1017.5 0.0
23/02:30am 17.8 13.9 12.0 69 3.2 WSW 24 30 13 16 1017.9 - 0.0
23/02:00am 17.6 14.1 12.1 70 3.0 WSW 22 28 12 15 1018.2 - 0.0
23/01:30am 16.8 16.2 13.4 80 1.9 SW 9 22 5 12 1018.3 - 0.0
23/01:00am 16.9 15.5 13.3 79 2.0 W 13 20 7 11 1018.4 - 0.0
23/12:30am 16.5 15.0 14.2 86 1.3 NNW 15 20 8 11 1018.4 - 0.0
23/12:00am 16.0 16.0 13.7 86 1.3 NNW 6 9 3 5 1018.2 1018.1 0.0
 
Date/Time
WST
Temp
°C
App
Temp
°C
Dew
Point
Rel
Hum
%
Delta-T
°C
Wind Press
QNH
hPa
Press
MSL
hPa
Rain
since 9 am
mm
Dir
 
Spd
km/h
Gust
km/h
Spd
kts
Gust
kts
22/11:30pm 16.6 15.1 13.0 79 2.0 NW 13 15 7 8 1018.6 - 0.0
22/11:00pm 16.6 13.9 13.0 79 2.0 NW 19 26 10 14 1019.0 - 0.0
22/10:30pm 17.5 14.8 13.4 77 2.3 WSW 20 26 11 14 1019.1 - 0.0
22/10:00pm 17.4 14.1 14.1 81 1.9 SW 24 32 13 17 1019.0 - 0.0
22/09:30pm 18.3 16.5 12.1 67 3.4 W 13 17 7 9 1019.0 - 0.0
22/09:00pm 18.3 15.9 11.5 64 3.7 W 15 19 8 10 1019.3 1019.2 0.0
22/08:30pm 18.5 15.0 10.9 61 4.1 W 20 24 11 13 1019.5 - 0.0
22/08:00pm 18.6 15.4 9.9 57 4.6 W 17 22 9 12 1019.2 - 0.0
22/07:30pm 18.4 14.5 10.8 61 4.1 WSW 22 28 12 15 1019.0 - 0.0
22/07:00pm 18.3 15.8 11.1 63 3.9 WSW 15 20 8 11 1018.9 - 0.0
22/06:30pm 18.3 14.8 10.2 59 4.3 W 19 22 10 12 1018.8 - 0.0
22/06:00pm 17.6 16.4 11.5 67 3.3 S 9 11 5 6 1018.3 1018.2 0.0
22/05:30pm 18.2 16.3 11.8 66 3.5 SW 13 20 7 11 1018.3 - 0.0
22/05:00pm 18.5 15.7 11.3 63 3.9 W 17 20 9 11 1018.3 - 0.0
22/04:30pm 18.7 15.9 11.4 62 4.0 W 17 20 9 11 1018.4 - 0.0
22/04:00pm 19.6 17.6 10.3 55 5.0 W 11 15 6 8 1018.5 - 0.0
22/03:30pm 19.8 17.5 10.5 55 5.0 WSW 13 17 7 9 1018.8 - 0.0
22/03:00pm 19.7 15.7 11.9 60 4.3 WSW 24 32 13 17 1018.9 1018.8 0.0
22/02:30pm 19.2 14.7 12.6 65 3.7 WSW 28 33 15 18 1019.0 - 0.0
22/02:00pm 18.9 14.6 9.4 54 5.0 W 22 26 12 14 1019.2 - 0.0
22/01:30pm 19.0 15.3 9.3 53 5.1 WNW 19 24 10 13 1019.5 - 0.0

Other Formats:

Comma delimited format used in spreadsheet applications
http://www.bom.gov.au/fwo/IDW60801/IDW60801.94601.axf

JavaScript Object Notation format (JSON) in row-major order
http://www.bom.gov.au/fwo/IDW60801/IDW60801.94601.json